Time;durP1;ratioP1;P1;durP2;ratioP2;P2;SDS_P1;SDS_P2;PMS_P1;PMS_P2;Temp;Humidity;BMP_temperature;BMP_pressure;BME280_temperature;BME280_humidity;BME280_pressure;Samples;Min_cycle;Max_cycle;Signal;HPM_P1;HPM_P2
2023/06/14 00:00:58;;;;;;;8.52;3.92;;;;;;;14.31;52.60;99847.72;5020882;28;20042;-38
2023/06/14 00:03:24;;;;;;;10.95;3.65;;;;;;;14.28;52.66;99845.25;5021602;28;20087;-38
2023/06/14 00:05:50;;;;;;;15.25;3.97;;;;;;;14.25;52.72;99841.94;5014466;28;20498;-39
2023/06/14 00:08:18;;;;;;;11.20;3.95;;;;;;;14.07;52.72;99814.03;5027097;28;20037;-37
2023/06/14 00:10:44;;;;;;;12.48;4.22;;;;;;;14.21;52.86;99846.47;5022817;28;20065;-37
2023/06/14 00:13:10;;;;;;;9.98;3.75;;;;;;;14.13;52.75;99835.50;5042862;28;20564;-38
2023/06/14 00:15:36;;;;;;;8.23;3.38;;;;;;;14.02;53.02;99822.09;5026578;28;20037;-39
2023/06/14 00:18:03;;;;;;;14.05;4.20;;;;;;;14.14;53.17;99844.19;5027996;28;20099;-39
2023/06/14 00:20:33;;;;;;;8.65;3.75;;;;;;;14.12;53.64;99843.44;5027086;28;20102;-39
2023/06/14 00:23:00;;;;;;;8.73;3.97;;;;;;;14.10;53.28;99845.25;5029016;28;20119;-38
2023/06/14 00:25:26;;;;;;;8.15;3.50;;;;;;;14.07;53.75;99840.19;5028798;28;20048;-38
2023/06/14 00:27:53;;;;;;;11.95;3.85;;;;;;;14.04;53.75;99845.53;5010368;28;20049;-38
2023/06/14 00:30:19;;;;;;;8.35;3.53;;;;;;;14.01;53.72;99851.75;5010838;28;20061;-39
2023/06/14 00:32:46;;;;;;;8.82;3.92;;;;;;;13.98;53.99;99847.50;5012212;28;20124;-38
2023/06/14 00:35:12;;;;;;;10.73;3.72;;;;;;;13.96;53.97;99849.38;5029930;28;20037;-38
2023/06/14 00:37:39;;;;;;;8.07;3.45;;;;;;;13.94;54.09;99852.94;5011366;28;20543;-39
2023/06/14 00:40:06;;;;;;;7.60;3.65;;;;;;;13.93;54.23;99851.25;5007747;28;20107;-38
2023/06/14 00:42:32;;;;;;;10.02;3.85;;;;;;;13.92;54.23;99854.81;5023162;28;20146;-38
2023/06/14 00:44:58;;;;;;;10.25;3.80;;;;;;;13.78;54.15;99826.66;5026670;28;20045;-39
2023/06/14 00:47:24;;;;;;;9.02;4.18;;;;;;;13.90;54.34;99847.03;5007818;28;20113;-37
2023/06/14 00:49:51;;;;;;;11.18;3.67;;;;;;;13.87;54.49;99844.53;5024121;28;20037;-39
2023/06/14 00:52:18;;;;;;;8.88;3.88;;;;;;;13.86;54.57;99845.47;5011774;28;20080;-38
2023/06/14 00:54:44;;;;;;;8.75;4.20;;;;;;;13.78;54.54;99831.88;5025585;28;20502;-38
2023/06/14 00:57:11;;;;;;;10.95;4.18;;;;;;;13.82;54.57;99846.50;5027806;28;20124;-39
2023/06/14 00:59:42;;;;;;;12.52;4.68;;;;;;;13.81;54.81;99843.97;5004249;28;20531;-39
2023/06/14 01:02:09;;;;;;;7.82;4.20;;;;;;;13.67;54.80;99822.81;5018609;28;20041;-39
2023/06/14 01:04:37;;;;;;;13.30;4.55;;;;;;;13.76;55.18;99845.94;5007655;28;20073;-39
2023/06/14 01:07:14;;;;;;;9.27;5.00;;;;;;;13.73;55.11;99841.69;5023886;28;20044;-39
2023/06/14 01:09:43;;;;;;;10.75;4.18;;;;;;;13.71;55.42;99851.34;5006206;28;20398;-38
2023/06/14 01:12:23;;;;;;;10.57;4.82;;;;;;;13.69;55.49;99845.38;5016521;28;20044;-39
2023/06/14 01:14:50;;;;;;;9.32;4.35;;;;;;;13.67;55.62;99844.56;5017236;28;20037;-38
2023/06/14 01:17:19;;;;;;;11.98;5.15;;;;;;;13.67;55.60;99836.75;4994477;28;20053;-38
2023/06/14 01:19:48;;;;;;;11.65;4.15;;;;;;;13.48;55.60;99820.19;5025355;28;20729;-39
2023/06/14 01:22:14;;;;;;;7.60;4.35;;;;;;;13.47;56.14;99821.94;5008280;28;20049;-38
2023/06/14 01:24:44;;;;;;;8.07;3.97;;;;;;;13.62;56.03;99849.16;4989919;28;20100;-38
2023/06/14 01:27:12;;;;;;;10.35;4.00;;;;;;;13.63;56.09;99845.63;5025817;28;20138;-38
2023/06/14 01:29:38;;;;;;;8.05;4.25;;;;;;;13.62;56.32;99858.75;5012237;28;20465;-38
2023/06/14 01:32:05;;;;;;;10.98;4.22;;;;;;;13.49;56.17;99827.13;5009319;28;20513;-38
2023/06/14 01:34:31;;;;;;;7.32;3.95;;;;;;;13.62;56.20;99837.84;5039178;28;20041;-39
2023/06/14 01:36:58;;;;;;;7.28;3.92;;;;;;;13.62;56.50;99843.94;5028415;28;20041;-38
2023/06/14 01:39:24;;;;;;;9.27;4.50;;;;;;;13.63;56.36;99848.25;5016426;28;20438;-38
2023/06/14 01:41:51;;;;;;;8.55;4.90;;;;;;;13.62;56.58;99846.53;5025179;28;20065;-39
2023/06/14 01:44:19;;;;;;;10.20;4.90;;;;;;;13.63;56.65;99856.09;4999945;28;20041;-38
2023/06/14 01:46:45;;;;;;;13.75;5.15;;;;;;;13.43;56.76;99820.41;4991374;28;20053;-37
2023/06/14 01:49:11;;;;;;;9.98;4.93;;;;;;;13.37;56.77;99814.59;5006181;28;20394;-38
2023/06/14 01:51:37;;;;;;;8.60;4.40;;;;;;;13.56;56.84;99842.44;5024536;28;20041;-38
2023/06/14 01:54:03;;;;;;;14.38;4.60;;;;;;;13.65;56.79;99854.28;5023583;28;20042;-38
2023/06/14 01:56:32;;;;;;;13.48;5.55;;;;;;;13.66;56.72;99849.91;5028385;28;20417;-38
2023/06/14 01:58:59;;;;;;;14.63;5.05;;;;;;;13.67;57.11;99852.41;5025276;28;20045;-38
2023/06/14 02:01:26;;;;;;;14.38;4.97;;;;;;;13.56;57.24;99836.34;4993510;28;20520;-38
2023/06/14 02:03:53;;;;;;;13.15;4.60;;;;;;;13.51;57.15;99825.25;5026405;28;20056;-39
2023/06/14 02:06:19;;;;;;;11.52;5.05;;;;;;;13.71;57.44;99856.59;5027301;28;20048;-37
2023/06/14 02:08:45;;;;;;;13.93;4.55;;;;;;;13.71;57.30;99847.91;5009566;28;20038;-39
2023/06/14 02:11:11;;;;;;;11.10;4.68;;;;;;;13.74;57.60;99850.38;5025014;28;20049;-38
2023/06/14 02:13:37;;;;;;;12.85;4.90;;;;;;;13.76;57.56;99852.03;5036282;28;20033;-38
2023/06/14 02:16:03;;;;;;;7.40;3.95;;;;;;;13.77;57.40;99856.31;5027880;28;20051;-38
2023/06/14 02:18:29;;;;;;;7.22;4.40;;;;;;;13.68;57.30;99834.97;5027879;28;20041;-39
2023/06/14 02:21:15;;;;;;;11.70;4.70;;;;;;;13.55;57.30;99817.22;5027351;28;20048;-38
2023/06/14 02:23:41;;;;;;;9.77;4.57;;;;;;;13.75;57.36;99837.25;4994163;28;20091;-37
2023/06/14 02:26:07;;;;;;;11.68;4.38;;;;;;;13.89;57.37;99854.94;5027140;28;20041;-39
2023/06/14 02:28:35;;;;;;;7.65;3.88;;;;;;;13.80;57.34;99837.06;5025467;28;20076;-39
2023/06/14 02:31:02;;;;;;;10.23;4.43;;;;;;;13.65;57.16;99802.00;5029392;28;20041;-39
2023/06/14 02:33:27;;;;;;;16.90;4.80;;;;;;;14.00;57.10;99857.91;5035862;28;20460;-38
2023/06/14 02:35:53;;;;;;;10.43;4.47;;;;;;;14.03;56.95;99849.09;5050389;28;20086;-37
2023/06/14 02:38:19;;;;;;;11.27;4.75;;;;;;;13.93;57.09;99832.94;5031102;28;20052;-38
2023/06/14 02:40:48;;;;;;;11.43;4.10;;;;;;;14.10;56.98;99859.19;5012091;28;20512;-37
2023/06/14 02:43:17;;;;;;;10.50;4.20;;;;;;;14.13;56.80;99860.81;5030813;28;20037;-38
2023/06/14 02:45:43;;;;;;;7.07;4.05;;;;;;;14.16;56.49;99858.91;5041903;28;20040;-38
2023/06/14 02:48:09;;;;;;;13.52;5.13;;;;;;;14.17;56.69;99864.97;5036460;28;20524;-39
2023/06/14 02:50:35;;;;;;;12.40;4.90;;;;;;;14.24;56.54;99872.44;5050291;28;20044;-38
2023/06/14 02:53:02;;;;;;;16.13;4.88;;;;;;;13.98;56.55;99817.91;5051775;28;20037;-38
2023/06/14 02:55:28;;;;;;;12.65;5.30;;;;;;;14.31;56.53;99868.66;5029383;28;20041;-39
2023/06/14 02:57:54;;;;;;;14.43;5.03;;;;;;;14.19;56.59;99847.44;5030797;28;20048;-38
2023/06/14 03:00:20;;;;;;;13.05;4.32;;;;;;;14.37;56.47;99870.16;5013534;28;20042;-38
2023/06/14 03:02:47;;;;;;;8.82;4.70;;;;;;;14.40;56.25;99868.25;5014024;28;20729;-38
2023/06/14 03:05:14;;;;;;;8.98;4.65;;;;;;;14.43;56.07;99867.25;5029491;28;20206;-38
2023/06/14 03:07:40;;;;;;;9.40;4.78;;;;;;;14.34;55.98;99860.66;5011661;28;20061;-37
2023/06/14 03:10:09;;;;;;;9.18;4.25;;;;;;;14.53;55.79;99878.13;5030335;28;20045;-39
2023/06/14 03:12:36;;;;;;;9.80;4.57;;;;;;;14.56;55.83;99883.22;5037162;28;20037;-39
2023/06/14 03:15:02;;;;;;;12.57;5.32;;;;;;;14.41;55.66;99850.78;4984995;28;20269;-38
2023/06/14 03:17:33;;;;;;;;;;;;;;;14.62;55.32;99875.06;5030450;28;20048;-38
2023/06/14 03:20:00;;;;;;;;;;;;;;;14.61;55.60;99879.47;5031415;28;20380;-37
2023/06/14 03:22:28;;;;;;;16.13;5.30;;;;;;;14.62;55.34;99882.94;5029701;28;20479;-37
2023/06/14 03:24:54;;;;;;;12.55;5.00;;;;;;;14.59;55.45;99868.25;5015657;28;20049;-38
2023/06/14 03:27:21;;;;;;;11.13;5.03;;;;;;;14.70;55.25;99886.03;5031644;28;20152;-38
2023/06/14 03:29:47;;;;;;;13.05;5.00;;;;;;;14.58;55.48;99856.06;5028263;28;20037;-37
2023/06/14 03:32:13;;;;;;;11.65;4.97;;;;;;;14.55;55.16;99847.53;5028297;28;20509;-38
2023/06/14 03:34:44;;;;;;;10.85;4.68;;;;;;;14.69;55.47;99864.25;5035169;28;20094;-37
2023/06/14 03:37:16;;;;;;;14.50;5.32;;;;;;;14.89;55.26;99878.13;5041962;28;20044;-38
2023/06/14 03:39:46;;;;;;;15.95;4.90;;;;;;;14.93;55.04;99877.91;5010688;28;20493;-39
2023/06/14 03:42:14;;;;;;;12.70;4.85;;;;;;;15.00;55.18;99881.94;5012194;28;20069;-38
2023/06/14 03:44:41;;;;;;;16.02;5.43;;;;;;;15.05;54.92;99881.69;5013126;28;20068;-38
2023/06/14 03:47:08;;;;;;;12.10;5.13;;;;;;;15.08;54.94;99869.28;5014668;28;20041;-38
2023/06/14 03:49:33;;;;;;;9.93;5.05;;;;;;;15.15;54.71;99873.31;5031973;28;20033;-38
2023/06/14 03:51:59;;;;;;;14.38;5.40;;;;;;;15.20;54.68;99867.84;5032082;28;20100;-38
2023/06/14 03:54:28;;;;;;;10.70;5.22;;;;;;;15.25;54.65;99871.91;5028372;28;20079;-39
2023/06/14 03:56:56;;;;;;;15.48;5.43;;;;;;;15.32;54.42;99880.31;5021766;28;20643;-38
2023/06/14 03:59:23;;;;;;;9.40;5.25;;;;;;;15.39;53.86;99878.22;5026080;28;20049;-38
2023/06/14 04:01:49;;;;;;;14.25;5.43;;;;;;;15.42;54.19;99864.97;5033644;28;20052;-38
2023/06/14 04:04:18;;;;;;;14.45;5.60;;;;;;;15.49;53.78;99875.06;5026915;28;20049;-37
2023/06/14 04:06:48;;;;;;;10.20;4.28;;;;;;;15.55;54.07;99874.78;5016539;28;20044;-37
2023/06/14 04:09:14;;;;;;;13.55;4.75;;;;;;;15.55;53.77;99868.69;5025323;28;20037;-37
2023/06/14 04:11:41;;;;;;;12.02;4.82;;;;;;;15.69;53.78;99879.31;5025467;28;20106;-37
2023/06/14 04:14:08;;;;;;;17.42;5.30;;;;;;;15.79;53.41;99875.28;5012165;28;20052;-37
2023/06/14 04:16:34;;;;;;;16.27;6.53;;;;;;;15.70;53.03;99838.22;5024902;28;20045;-50
2023/06/14 04:19:01;;;;;;;12.52;5.05;;;;;;;15.97;53.03;99870.81;5008201;28;20049;-37
2023/06/14 04:21:28;;;;;;;16.35;5.03;;;;;;;16.05;53.05;99873.91;5018135;28;20060;-37
2023/06/14 04:23:56;;;;;;;9.83;4.87;;;;;;;16.12;53.12;99869.19;5025677;28;20267;-38
2023/06/14 04:26:29;;;;;;;11.07;4.60;;;;;;;16.20;52.60;99866.97;5012416;28;20281;-36
2023/06/14 04:29:01;;;;;;;12.48;4.85;;;;;;;16.25;52.43;99864.94;4999203;28;20446;-36
2023/06/14 04:31:33;;;;;;;13.75;4.40;;;;;;;16.37;52.28;99864.28;5017594;28;20049;-33
2023/06/14 04:34:00;;;;;;;8.70;4.10;;;;;;;16.32;52.24;99842.69;5025597;28;20041;-40
2023/06/14 04:36:27;;;;;;;9.05;3.95;;;;;;;16.38;51.86;99837.13;4998428;28;20072;-36
2023/06/14 04:38:54;;;;;;;10.65;4.40;;;;;;;16.58;51.58;99865.72;5026425;28;20041;-54
2023/06/14 04:41:22;;;;;;;5.97;3.95;;;;;;;16.65;51.36;99877.59;5024910;28;20084;-43
2023/06/14 04:43:49;;;;;;;10.75;4.43;;;;;;;16.74;51.27;99871.84;5026360;28;20049;-63
2023/06/14 04:46:17;;;;;;;14.95;5.07;;;;;;;16.81;51.37;99867.91;5027917;28;20041;-43
2023/06/14 04:48:44;;;;;;;10.30;5.10;;;;;;;16.95;50.97;99875.03;5028675;28;20052;-46
2023/06/14 04:51:11;;;;;;;11.50;3.88;;;;;;;17.04;50.68;99873.63;5027987;28;20038;-43
2023/06/14 04:53:37;;;;;;;9.90;4.80;;;;;;;17.15;50.61;99873.88;5026664;28;20523;-37
2023/06/14 04:56:04;;;;;;;14.27;4.70;;;;;;;17.26;50.36;99880.19;5026752;28;20069;-36
2023/06/14 04:58:32;;;;;;;11.20;5.40;;;;;;;17.24;50.20;99847.88;5011917;28;20514;-37
2023/06/14 05:00:59;;;;;;;9.13;4.13;;;;;;;17.38;49.39;99847.06;5006737;28;20044;-38
2023/06/14 05:03:26;;;;;;;8.27;4.22;;;;;;;17.60;48.88;99862.44;5027081;28;20091;-37
2023/06/14 05:05:54;;;;;;;8.50;3.88;;;;;;;17.72;48.84;99869.59;5028393;28;20046;-38
2023/06/14 05:08:23;;;;;;;9.18;3.83;;;;;;;17.58;48.79;99822.22;5025132;28;20060;-38
2023/06/14 05:10:50;;;;;;;7.10;3.47;;;;;;;17.95;48.51;99869.00;5027256;28;20041;-37
2023/06/14 05:13:17;;;;;;;12.60;4.43;;;;;;;18.03;48.34;99869.41;5025776;28;20098;-37
2023/06/14 05:15:45;;;;;;;10.82;4.95;;;;;;;18.14;47.83;99858.19;5043991;28;20049;-38
2023/06/14 05:18:13;;;;;;;8.93;3.55;;;;;;;18.26;47.58;99867.13;5027514;28;20048;-37
2023/06/14 05:20:41;;;;;;;13.43;5.97;;;;;;;18.36;47.33;99865.59;5028961;28;20037;-38
2023/06/14 05:23:08;;;;;;;14.90;6.88;;;;;;;18.50;47.00;99870.81;5029082;28;20037;-37
2023/06/14 05:25:35;;;;;;;9.27;4.75;;;;;;;18.60;46.83;99872.81;5029139;28;20061;-37
2023/06/14 05:28:01;;;;;;;13.43;6.47;;;;;;;18.73;46.33;99869.38;5028830;28;20045;-38
2023/06/14 05:30:29;;;;;;;12.55;5.65;;;;;;;18.83;45.77;99873.13;5011174;28;20033;-37
2023/06/14 05:32:55;;;;;;;16.83;7.10;;;;;;;18.94;45.33;99868.84;5028667;28;20049;-37
2023/06/14 05:35:22;;;;;;;13.95;6.00;;;;;;;19.07;45.13;99874.13;5028818;28;20128;-37
2023/06/14 05:37:48;;;;;;;10.20;3.33;;;;;;;19.21;44.61;99879.31;5028855;28;20513;-37
2023/06/14 05:40:14;;;;;;;13.85;6.10;;;;;;;19.08;44.77;99830.16;5027412;28;20136;-39
2023/06/14 05:42:40;;;;;;;6.25;3.20;;;;;;;19.41;44.48;99859.53;5010646;28;20605;-38
2023/06/14 05:45:06;;;;;;;6.80;3.65;;;;;;;19.51;44.08;99846.59;5007721;28;20041;-39
2023/06/14 05:47:32;;;;;;;16.25;6.28;;;;;;;19.70;43.64;99855.78;5007541;28;20041;-38
2023/06/14 05:49:58;;;;;;;16.48;8.80;;;;;;;19.59;42.94;99818.75;5008994;28;20033;-37
2023/06/14 05:52:25;;;;;;;11.90;4.97;;;;;;;19.97;42.31;99870.63;5007619;28;20049;-38
2023/06/14 05:54:51;;;;;;;25.95;12.18;;;;;;;19.99;41.74;99848.47;5023629;28;20042;-38
2023/06/14 05:57:16;;;;;;;13.10;5.10;;;;;;;20.09;41.23;99846.03;5007167;28;20122;-38
2023/06/14 05:59:42;;;;;;;11.18;3.38;;;;;;;20.33;40.72;99868.06;5008581;28;20038;-38
2023/06/14 06:02:08;;;;;;;6.97;3.15;;;;;;;20.49;40.36;99876.59;5007228;28;20042;-39
2023/06/14 06:04:34;;;;;;;18.23;8.70;;;;;;;20.61;39.76;99867.78;5008595;28;20060;-37
2023/06/14 06:07:00;;;;;;;8.43;4.15;;;;;;;20.75;39.63;99872.03;5008680;28;20041;-38
2023/06/14 06:09:26;;;;;;;6.97;3.60;;;;;;;20.91;39.46;99869.13;5007195;28;20037;-38
2023/06/14 06:11:52;;;;;;;10.85;3.30;;;;;;;21.06;39.21;99867.97;4974767;28;20049;-38
2023/06/14 06:14:18;;;;;;;18.00;8.57;;;;;;;21.17;38.98;99867.22;5015591;28;20544;-40
2023/06/14 06:16:44;;;;;;;24.73;11.88;;;;;;;21.22;38.82;99857.13;5008582;28;20046;-37
2023/06/14 06:19:11;;;;;;;8.25;4.28;;;;;;;21.50;38.89;99872.59;5008577;28;20041;-38
2023/06/14 06:21:37;;;;;;;11.15;6.22;;;;;;;21.67;38.76;99871.31;5008574;28;20627;-37
2023/06/14 06:24:05;;;;;;;41.97;22.77;;;;;;;21.83;37.48;99885.03;5007388;28;20041;-37
2023/06/14 06:26:31;;;;;;;19.30;9.60;;;;;;;21.88;36.67;99869.63;5007403;28;20038;-39
2023/06/14 06:29:01;;;;;;;9.18;5.28;;;;;;;22.11;36.05;99865.22;5006769;28;20129;-39
2023/06/14 06:31:27;;;;;;;11.77;6.03;;;;;;;22.15;35.48;99846.31;5007105;28;20136;-38
2023/06/14 06:33:54;;;;;;;11.27;3.88;;;;;;;22.40;35.18;99853.13;5006932;28;20070;-38
2023/06/14 06:36:21;;;;;;;17.77;8.65;;;;;;;22.74;34.78;99868.03;5007121;28;20046;-39
2023/06/14 06:38:48;;;;;;;11.60;6.43;;;;;;;23.06;34.25;99869.84;5006900;28;20053;-38
2023/06/14 06:41:13;;;;;;;18.60;9.23;;;;;;;23.59;33.25;99863.56;4979094;28;20060;-38
2023/06/14 06:43:40;;;;;;;9.18;4.45;;;;;;;24.40;32.12;99859.16;5043006;28;20055;-38
2023/06/14 06:46:08;;;;;;;6.10;2.92;;;;;;;25.27;30.28;99857.44;5010615;28;20045;-39
2023/06/14 06:48:34;;;;;;;3.67;2.40;;;;;;;26.27;29.21;99853.25;4994034;28;20052;-39
2023/06/14 06:51:00;;;;;;;6.80;2.10;;;;;;;27.35;28.73;99854.00;5026003;28;20051;-39
2023/06/14 06:53:26;;;;;;;10.80;7.80;;;;;;;28.40;27.34;99853.78;5026454;28;20053;-39
2023/06/14 06:55:51;;;;;;;26.52;14.38;;;;;;;29.38;26.02;99850.25;5026639;28;20428;-37
2023/06/14 06:58:17;;;;;;;5.65;2.40;;;;;;;30.22;24.37;99841.69;5010041;28;20049;-38
2023/06/14 07:00:43;;;;;;;21.65;12.45;;;;;;;31.12;23.48;99868.88;5026240;28;20042;-39
2023/06/14 07:03:10;;;;;;;7.32;3.53;;;;;;;31.87;22.35;99867.00;5027752;28;20535;-37
2023/06/14 07:05:36;;;;;;;4.07;2.72;;;;;;;32.82;22.03;99868.88;5026551;28;20517;-39
2023/06/14 07:08:02;;;;;;;7.05;3.33;;;;;;;33.52;21.29;99860.81;5010191;28;20048;-39
2023/06/14 07:10:28;;;;;;;3.13;2.40;;;;;;;34.02;20.04;99867.81;5010202;28;20115;-39
2023/06/14 07:12:55;;;;;;;4.63;2.90;;;;;;;34.68;19.07;99850.06;5026359;28;20119;-38
2023/06/14 07:15:21;;;;;;;7.35;2.70;;;;;;;35.43;18.99;99848.91;5017345;28;20049;-38
2023/06/14 07:17:47;;;;;;;6.85;4.28;;;;;;;36.22;17.83;99865.00;5029809;28;20128;-38
2023/06/14 07:20:13;;;;;;;7.55;5.55;;;;;;;36.78;17.66;99862.50;5031118;28;20699;-38
2023/06/14 07:22:43;;;;;;;13.55;6.22;;;;;;;37.15;17.11;99840.97;5030038;28;20038;-38
2023/06/14 07:25:13;;;;;;;6.28;2.90;;;;;;;37.72;16.31;99859.69;5030403;28;20513;-39
2023/06/14 07:27:39;;;;;;;4.75;3.85;;;;;;;37.94;15.65;99853.81;5031166;28;20048;-39
2023/06/14 07:30:06;;;;;;;5.57;4.40;;;;;;;38.47;15.62;99856.78;5031439;28;20037;-39
2023/06/14 07:32:32;;;;;;;3.87;3.07;;;;;;;38.87;15.07;99847.00;5013643;28;20049;-40
2023/06/14 07:34:58;;;;;;;9.70;4.13;;;;;;;39.24;14.98;99835.97;5031078;28;20537;-39
2023/06/14 07:37:24;;;;;;;10.18;5.47;;;;;;;40.03;14.49;99851.72;5031130;28;20068;-39
2023/06/14 07:39:50;;;;;;;12.50;6.60;;;;;;;40.44;14.41;99841.66;5013068;28;20128;-39
2023/06/14 07:42:16;;;;;;;7.22;3.75;;;;;;;40.78;14.28;99835.22;5030710;28;20196;-39
2023/06/14 07:44:42;;;;;;;6.65;4.28;;;;;;;40.99;13.52;99861.78;5013258;28;20167;-39
2023/06/14 07:47:08;;;;;;;9.25;5.65;;;;;;;41.16;13.19;99861.84;5013267;28;20582;-41
2023/06/14 07:49:34;;;;;;;4.22;2.55;;;;;;;41.28;13.25;99865.31;5029674;28;20033;-38
2023/06/14 07:52:00;;;;;;;7.38;4.25;;;;;;;41.53;12.75;99853.16;5013134;28;20107;-39
2023/06/14 07:54:26;;;;;;;7.03;3.97;;;;;;;41.82;12.79;99857.44;5030812;28;20425;-39
2023/06/14 07:56:52;;;;;;;9.57;2.80;;;;;;;41.70;12.60;99832.94;5030534;28;20498;-38
2023/06/14 07:59:18;;;;;;;9.00;2.88;;;;;;;41.99;12.39;99846.44;5029318;28;20052;-39
2023/06/14 08:01:47;;;;;;;3.97;2.65;;;;;;;42.25;12.42;99845.69;5030560;28;20037;-40
2023/06/14 08:04:15;;;;;;;3.28;2.58;;;;;;;42.56;12.65;99844.13;5029295;28;20041;-40
2023/06/14 08:06:45;;;;;;;7.78;3.88;;;;;;;42.91;12.02;99850.00;5029264;28;20044;-39
2023/06/14 08:09:12;;;;;;;7.38;4.28;;;;;;;43.32;12.00;99858.56;5029161;28;20631;-38
2023/06/14 08:11:38;;;;;;;7.85;3.80;;;;;;;43.27;11.67;99853.06;5029256;28;20041;-38
2023/06/14 08:14:04;;;;;;;6.25;4.75;;;;;;;43.31;11.57;99854.19;5005918;28;20044;-38
2023/06/14 08:16:30;;;;;;;10.60;4.18;;;;;;;43.55;11.54;99858.19;5028634;28;20037;-39
2023/06/14 08:18:56;;;;;;;7.57;4.22;;;;;;;43.83;11.60;99851.53;5045368;28;20139;-42
2023/06/14 08:21:23;;;;;;;8.40;5.20;;;;;;;44.07;11.37;99854.69;5012771;28;20128;-40
2023/06/14 08:23:52;;;;;;;3.78;3.20;;;;;;;44.37;11.14;99852.09;5029024;28;20033;-39
2023/06/14 08:26:19;;;;;;;5.53;4.80;;;;;;;44.74;11.14;99857.41;4995926;28;20049;-40
2023/06/14 08:28:45;;;;;;;9.52;5.97;;;;;;;44.93;10.82;99850.28;5027677;28;20072;-40
2023/06/14 08:31:12;;;;;;;4.88;3.53;;;;;;;45.07;10.98;99847.81;5028686;28;20180;-39
2023/06/14 08:33:42;;;;;;;9.45;4.20;;;;;;;45.14;10.48;99851.13;5028920;28;20030;-39
2023/06/14 08:36:10;;;;;;;8.75;4.40;;;;;;;45.05;10.28;99828.91;5030256;28;20420;-39
2023/06/14 08:38:37;;;;;;;6.88;3.80;;;;;;;45.31;10.59;99848.94;5028744;28;20180;-40
2023/06/14 08:41:05;;;;;;;5.68;3.80;;;;;;;45.18;10.14;99841.22;5026095;28;20054;-39
2023/06/14 08:43:32;;;;;;;8.98;4.32;;;;;;;45.08;9.92;99827.50;5008798;28;20049;-40
2023/06/14 08:46:03;;;;;;;8.60;6.15;;;;;;;45.39;9.98;99850.28;4992750;28;20029;-39
2023/06/14 08:48:32;;;;;;;13.07;11.80;;;;;;;45.65;10.20;99849.16;5008731;28;20065;-38
2023/06/14 08:51:04;;;;;;;8.00;4.97;;;;;;;45.72;9.92;99837.88;5008182;28;20050;-39
2023/06/14 08:53:31;;;;;;;7.88;5.35;;;;;;;45.90;9.57;99838.13;5009700;28;20073;-39
2023/06/14 08:56:04;;;;;;;6.13;5.55;;;;;;;46.06;9.59;99821.56;5008407;28;20148;-39
2023/06/14 08:58:33;;;;;;;4.20;3.60;;;;;;;46.16;9.57;99829.75;5008727;28;20041;-39
2023/06/14 09:01:00;;;;;;;4.47;3.95;;;;;;;46.37;9.75;99836.81;5008454;28;20080;-38
2023/06/14 09:03:35;;;;;;;8.35;3.97;;;;;;;46.58;9.29;99840.31;4975651;28;20042;-39
2023/06/14 09:06:03;;;;;;;8.07;3.90;;;;;;;46.69;9.36;99828.91;4993308;28;20456;-39
2023/06/14 09:08:30;;;;;;;9.18;4.82;;;;;;;46.87;9.72;99821.91;5008188;28;20053;-43
2023/06/14 09:10:57;;;;;;;4.63;3.35;;;;;;;46.94;9.21;99827.94;4991981;28;20573;-39
2023/06/14 09:13:23;;;;;;;5.18;4.05;;;;;;;46.93;9.54;99828.22;4993134;28;20127;-39
2023/06/14 09:15:51;;;;;;;14.13;4.20;;;;;;;47.02;9.72;99816.28;5013611;28;20041;-39
2023/06/14 09:18:20;;;;;;;9.73;8.40;;;;;;;47.11;9.49;99811.00;5008190;28;20053;-39
2023/06/14 09:20:48;;;;;;;15.27;10.18;;;;;;;47.07;9.26;99791.47;4992121;28;20121;-40
2023/06/14 09:23:21;;;;;;;8.73;4.38;;;;;;;46.89;8.90;99810.59;5008166;28;20045;-39
2023/06/14 09:25:47;;;;;;;8.80;3.90;;;;;;;46.89;8.96;99814.19;4991730;28;20104;-39
2023/06/14 09:28:13;;;;;;;;;;;;;;;46.99;9.16;99813.31;5008417;28;20081;-39
2023/06/14 09:30:40;;;;;;;5.45;3.88;;;;;;;47.27;9.41;99803.41;5009484;28;19966;-40
2023/06/14 09:33:06;;;;;;;4.93;4.50;;;;;;;47.31;9.02;99794.28;5009208;28;20096;-40
2023/06/14 09:35:32;;;;;;;4.57;4.20;;;;;;;47.50;8.99;99811.72;5009371;28;20041;-39
2023/06/14 09:37:58;;;;;;;6.03;4.05;;;;;;;47.47;8.95;99804.03;5007891;28;20501;-40
2023/06/14 09:40:26;;;;;;;4.63;4.18;;;;;;;47.46;8.90;99796.06;4991195;28;20536;-40
2023/06/14 09:42:52;;;;;;;4.72;4.28;;;;;;;47.55;8.75;99817.16;5027366;28;20043;-39
2023/06/14 09:45:21;;;;;;;4.97;3.50;;;;;;;47.51;8.64;99796.81;5028596;28;20045;-39
2023/06/14 09:47:51;;;;;;;8.05;3.95;;;;;;;47.47;8.86;99804.03;5028560;28;20682;-39
2023/06/14 09:50:17;;;;;;;9.27;4.47;;;;;;;47.44;8.88;99803.78;5010987;28;20468;-39
2023/06/14 09:52:44;;;;;;;14.33;4.83;;;;;;;47.36;8.87;99796.16;5028753;28;20095;-39
2023/06/14 09:55:14;;;;;;;6.25;4.05;;;;;;;46.96;8.94;99795.41;5027347;28;20041;-38
2023/06/14 09:57:43;;;;;;;6.47;5.63;;;;;;;47.03;8.84;99764.78;5028423;28;20052;-40
2023/06/14 10:00:12;;;;;;;10.90;9.30;;;;;;;47.33;8.84;99777.44;5028332;28;20040;-38
2023/06/14 10:02:42;;;;;;;12.50;8.38;;;;;;;47.57;8.49;99792.91;5026924;28;20148;-39
2023/06/14 10:05:09;;;;;;;9.32;6.63;;;;;;;47.75;8.90;99788.56;5026983;28;20081;-38
2023/06/14 10:07:50;;;;;;;8.63;7.82;;;;;;;47.93;8.70;99778.69;4994222;28;20048;-39
2023/06/14 10:10:17;;;;;;;13.40;10.40;;;;;;;48.13;8.73;99775.66;5026495;28;20103;-38
2023/06/14 10:12:42;;;;;;;7.50;6.80;;;;;;;48.15;8.61;99767.94;5026943;28;20041;-40
2023/06/14 10:15:10;;;;;;;6.33;4.20;;;;;;;47.79;8.65;99742.72;5019436;28;20057;-40
2023/06/14 10:17:39;;;;;;;10.05;7.63;;;;;;;47.71;8.82;99767.38;4990705;28;20056;-39
2023/06/14 10:20:19;;;;;;;12.55;8.20;;;;;;;47.71;8.94;99765.47;5008158;28;20103;-40
2023/06/14 10:22:50;;;;;;;15.18;12.00;;;;;;;47.66;8.98;99749.00;5008039;28;20037;-39
2023/06/14 10:25:30;;;;;;;15.10;11.75;;;;;;;47.93;8.70;99765.72;4974573;28;20069;-38
2023/06/14 10:28:08;;;;;;;11.55;6.93;;;;;;;48.06;8.66;99763.34;5006896;28;20045;-39
2023/06/14 10:30:34;;;;;;;8.13;5.00;;;;;;;48.18;8.62;99758.22;4990546;28;20501;-39
2023/06/14 10:33:05;;;;;;;9.57;4.78;;;;;;;48.33;8.76;99761.56;5006692;28;20042;-39
2023/06/14 10:35:31;;;;;;;18.13;4.45;;;;;;;48.30;8.62;99747.56;5006889;28;20518;-39
2023/06/14 10:38:07;;;;;;;6.17;4.70;;;;;;;48.49;8.62;99753.06;5008338;28;20058;-38
2023/06/14 10:40:33;;;;;;;6.78;4.60;;;;;;;48.37;8.60;99745.25;5007932;28;20583;-39
2023/06/14 10:43:00;;;;;;;11.02;4.95;;;;;;;48.38;8.59;99741.38;5027495;28;20565;-39
2023/06/14 10:45:26;;;;;;;5.85;4.57;;;;;;;48.35;8.60;99742.81;5010218;28;20049;-40
2023/06/14 10:47:53;;;;;;;5.63;4.50;;;;;;;48.30;8.57;99753.91;5027994;28;20057;-39
2023/06/14 10:50:27;;;;;;;7.75;4.40;;;;;;;48.33;8.61;99749.72;5027683;28;20132;-40
2023/06/14 10:52:53;;;;;;;5.82;4.63;;;;;;;48.02;8.66;99743.84;5030470;28;20051;-38
2023/06/14 10:55:21;;;;;;;4.70;4.30;;;;;;;47.92;8.69;99736.50;5031752;28;20041;-39
2023/06/14 10:57:51;;;;;;;5.03;4.03;;;;;;;47.71;8.62;99715.84;5014728;28;20396;-40
2023/06/14 11:00:24;;;;;;;11.13;4.40;;;;;;;47.57;8.87;99731.44;5030438;28;20033;-39
2023/06/14 11:03:06;;;;;;;5.97;3.83;;;;;;;47.72;9.03;99727.69;5031644;28;20045;-39
2023/06/14 11:05:41;;;;;;;11.63;6.55;;;;;;;47.97;8.93;99728.16;5030264;28;20462;-40
2023/06/14 11:08:45;;;;;;;10.45;6.43;;;;;;;47.97;8.79;99727.34;5030457;28;20051;-40
2023/06/14 11:11:12;;;;;;;6.72;4.07;;;;;;;48.06;8.48;99722.81;5031653;28;20529;-39
2023/06/14 11:13:41;;;;;;;6.28;4.50;;;;;;;47.84;8.87;99728.09;5031315;28;20079;-40
2023/06/14 11:16:14;;;;;;;7.65;3.92;;;;;;;47.87;8.63;99725.53;5015031;28;20038;-39
2023/06/14 11:18:41;;;;;;;4.93;4.00;;;;;;;47.81;8.64;99712.94;5010343;28;20041;-40
2023/06/14 11:21:08;;;;;;;5.57;3.75;;;;;;;48.08;8.78;99720.59;5011394;28;20093;-39
2023/06/14 11:23:38;;;;;;;8.52;4.13;;;;;;;48.22;9.01;99712.34;5010295;28;20049;-40
2023/06/14 11:26:04;;;;;;;8.20;3.97;;;;;;;48.17;8.78;99693.94;5011807;28;20084;-39
2023/06/14 11:28:41;;;;;;;7.25;3.95;;;;;;;48.30;8.76;99723.56;5010007;28;20048;-40
2023/06/14 11:31:07;;;;;;;5.15;4.65;;;;;;;48.22;8.50;99724.22;5010331;28;20080;-39
2023/06/14 11:33:34;;;;;;;6.03;4.45;;;;;;;48.18;8.33;99722.34;5011337;28;20099;-39